Time;durP1;ratioP1;P1;durP2;ratioP2;P2;SDS_P1;SDS_P2;PMS_P1;PMS_P2;Temp;Humidity;BMP_temperature;BMP_pressure;BME280_temperature;BME280_humidity;BME280_pressure;Samples;Min_cycle;Max_cycle;Signal;HPM_P1;HPM_P2
2023/05/23 00:01:41;;;;;;;31.02;15.52;;;;;;;;;;6214944;23;20420;-78
2023/05/23 00:04:07;;;;;;;31.50;16.25;;;;;;;;;;6215287;23;20005;-77
2023/05/23 00:06:33;;;;;;;31.00;16.40;;;;;;;;;;6215711;23;20009;-79
2023/05/23 00:08:58;;;;;;;37.90;15.90;;;;;;;;;;6214874;23;20034;-78
2023/05/23 00:11:26;;;;;;;31.27;15.85;;;;;;;;;;6214854;23;20001;-78
2023/05/23 00:13:56;;;;;;;35.53;16.38;;;;;;;;;;6188733;23;20004;-78
2023/05/23 00:16:21;;;;;;;;;;;;;;;;;;6164236;23;20091;-78
2023/05/23 00:18:49;;;;;;;34.92;16.73;;;;;;;;;;6163454;23;19918;-78
2023/05/23 00:21:14;;;;;;;35.25;17.00;;;;;;;;;;6188696;23;20365;-78
2023/05/23 00:23:41;;;;;;;35.95;16.85;;;;;;;;;;6188856;23;20005;-78
2023/05/23 00:26:07;;;;;;;33.97;16.95;;;;;;;;;;6188375;23;20009;-78
2023/05/23 00:28:32;;;;;;;36.03;17.05;;;;;;;;;;6188091;23;20000;-78
2023/05/23 00:30:58;;;;;;;48.58;23.77;;;;;;;;;;6188105;23;20004;-78
2023/05/23 00:33:23;;;;;;;43.35;20.95;;;;;;;;;;6188048;23;20088;-78
2023/05/23 00:35:49;;;;;;;65.78;27.70;;;;;;;;;;6163414;23;20095;-78
2023/05/23 00:38:14;;;;;;;56.90;26.73;;;;;;;;;;6163394;23;20491;-79
2023/05/23 00:40:40;;;;;;;57.22;26.45;;;;;;;;;;6214540;23;20036;-78
2023/05/23 00:43:07;;;;;;;55.65;24.88;;;;;;;;;;6215093;23;20001;-78
2023/05/23 00:45:32;;;;;;;50.17;24.80;;;;;;;;;;6188204;23;20009;-78
2023/05/23 00:47:58;;;;;;;57.15;24.88;;;;;;;;;;6163478;23;20001;-78
2023/05/23 00:50:28;;;;;;;49.17;23.83;;;;;;;;;;6163811;23;20386;-78
2023/05/23 00:52:53;;;;;;;52.00;22.90;;;;;;;;;;6164252;23;20009;-78
2023/05/23 00:55:19;;;;;;;59.72;24.20;;;;;;;;;;6162983;23;20095;-79
2023/05/23 00:57:44;;;;;;;53.20;24.15;;;;;;;;;;6188253;23;20020;-79
2023/05/23 01:00:14;;;;;;;49.78;23.08;;;;;;;;;;6163364;23;19996;-78
2023/05/23 01:02:43;;;;;;;55.50;23.93;;;;;;;;;;6188908;23;20079;-79
2023/05/23 01:05:13;;;;;;;45.33;23.60;;;;;;;;;;6214272;23;20311;-78
2023/05/23 01:07:45;;;;;;;58.35;24.02;;;;;;;;;;6163845;23;20026;-79
2023/05/23 01:10:12;;;;;;;51.17;23.65;;;;;;;;;;6188026;23;20008;-79
2023/05/23 01:13:02;;;;;;;58.50;24.58;;;;;;;;;;6187874;23;20404;-79
2023/05/23 01:15:35;;;;;;;63.38;24.05;;;;;;;;;;6187743;23;20015;-78
2023/05/23 01:18:09;;;;;;;55.92;24.13;;;;;;;;;;6164485;23;20000;-79
2023/05/23 01:20:44;;;;;;;50.97;22.58;;;;;;;;;;6187900;23;20420;-78
2023/05/23 01:23:22;;;;;;;44.20;22.05;;;;;;;;;;6188277;23;19997;-79
2023/05/23 01:25:58;;;;;;;54.47;22.83;;;;;;;;;;6187548;23;20040;-79
2023/05/23 01:28:28;;;;;;;54.45;22.17;;;;;;;;;;6188714;23;20395;-80
2023/05/23 01:30:56;;;;;;;54.33;22.40;;;;;;;;;;6163644;23;20007;-79
2023/05/23 01:33:21;;;;;;;48.10;21.77;;;;;;;;;;6163303;23;20007;-79
2023/05/23 01:35:47;;;;;;;49.00;22.73;;;;;;;;;;6162535;23;20001;-79
2023/05/23 01:38:12;;;;;;;47.63;22.35;;;;;;;;;;6162726;23;20098;-78
2023/05/23 01:40:38;;;;;;;42.42;21.52;;;;;;;;;;6187120;23;20035;-78
2023/05/23 01:43:03;;;;;;;45.97;21.48;;;;;;;;;;6213950;23;20005;-78
2023/05/23 01:45:28;;;;;;;44.85;21.52;;;;;;;;;;6187462;23;20005;-78
2023/05/23 01:47:55;;;;;;;47.90;21.38;;;;;;;;;;6187505;23;20079;-79
2023/05/23 01:50:20;;;;;;;43.13;20.48;;;;;;;;;;6187886;23;20007;-78
2023/05/23 01:52:46;;;;;;;45.38;22.45;;;;;;;;;;6162481;23;20095;-79
2023/05/23 01:55:13;;;;;;;37.78;20.75;;;;;;;;;;6186975;23;20004;-79
2023/05/23 01:57:38;;;;;;;48.45;21.65;;;;;;;;;;6187609;23;20343;-78
2023/05/23 02:00:05;;;;;;;49.50;23.83;;;;;;;;;;6163190;23;20000;-78
2023/05/23 02:02:32;;;;;;;51.85;23.88;;;;;;;;;;6138013;23;20440;-79
2023/05/23 02:04:58;;;;;;;51.95;22.10;;;;;;;;;;6162390;23;20005;-79
2023/05/23 02:07:23;;;;;;;52.60;23.48;;;;;;;;;;6138130;23;20054;-78
2023/05/23 02:09:49;;;;;;;44.55;21.90;;;;;;;;;;6187256;23;20008;-79
2023/05/23 02:12:14;;;;;;;42.42;19.83;;;;;;;;;;6162656;23;20015;-79
2023/05/23 02:14:41;;;;;;;39.20;17.70;;;;;;;;;;6162248;23;20055;-79
2023/05/23 02:17:09;;;;;;;26.98;15.38;;;;;;;;;;6213633;23;20013;-80
2023/05/23 02:19:35;;;;;;;30.13;15.13;;;;;;;;;;6187921;23;20001;-79
2023/05/23 02:22:01;;;;;;;31.13;14.20;;;;;;;;;;6213252;23;20008;-79
2023/05/23 02:24:26;;;;;;;24.35;12.40;;;;;;;;;;6213556;23;20071;-79
2023/05/23 02:26:52;;;;;;;28.00;12.45;;;;;;;;;;6187178;23;20012;-80
2023/05/23 02:29:17;;;;;;;24.15;12.82;;;;;;;;;;6162402;23;20003;-79
2023/05/23 02:31:43;;;;;;;25.75;12.73;;;;;;;;;;6162283;23;20064;-79
2023/05/23 02:34:08;;;;;;;24.25;12.38;;;;;;;;;;6186946;23;19997;-79
2023/05/23 02:36:35;;;;;;;27.23;12.68;;;;;;;;;;6186830;23;20047;-79
2023/05/23 02:39:04;;;;;;;26.73;12.30;;;;;;;;;;6163212;23;20348;-77
2023/05/23 02:41:29;;;;;;;24.52;12.80;;;;;;;;;;6213647;23;20004;-78
2023/05/23 02:43:55;;;;;;;25.83;13.18;;;;;;;;;;6162296;23;20387;-78
2023/05/23 02:46:20;;;;;;;27.75;12.55;;;;;;;;;;6213417;23;20000;-78
2023/05/23 02:48:46;;;;;;;22.80;11.68;;;;;;;;;;6162410;23;20095;-78
2023/05/23 02:51:12;;;;;;;26.33;11.88;;;;;;;;;;6186711;23;20142;-78
2023/05/23 02:53:38;;;;;;;25.27;12.43;;;;;;;;;;6213385;23;19997;-78
2023/05/23 02:56:03;;;;;;;24.95;11.98;;;;;;;;;;6187693;23;20341;-77
2023/05/23 02:58:29;;;;;;;21.95;11.18;;;;;;;;;;6187507;23;20023;-79
2023/05/23 03:00:54;;;;;;;24.70;12.30;;;;;;;;;;6189295;23;20054;-77
2023/05/23 03:03:19;;;;;;;30.02;12.32;;;;;;;;;;6190723;23;20005;-79
2023/05/23 03:05:47;;;;;;;21.13;11.55;;;;;;;;;;6216844;23;20444;-79
2023/05/23 03:08:12;;;;;;;32.60;12.98;;;;;;;;;;6217062;23;20076;-80
2023/05/23 03:10:37;;;;;;;28.13;12.98;;;;;;;;;;6165877;23;20435;-79
2023/05/23 03:13:03;;;;;;;19.50;11.75;;;;;;;;;;6140963;23;19997;-80
2023/05/23 03:15:30;;;;;;;27.05;12.63;;;;;;;;;;6190401;23;20005;-78
2023/05/23 03:17:56;;;;;;;25.75;12.13;;;;;;;;;;6216666;23;20008;-78
2023/05/23 03:20:21;;;;;;;31.63;12.88;;;;;;;;;;6164507;23;20412;-78
2023/05/23 03:22:47;;;;;;;35.22;12.82;;;;;;;;;;6216634;23;20312;-78
2023/05/23 03:25:14;;;;;;;26.27;12.15;;;;;;;;;;6216715;23;20001;-79
2023/05/23 03:27:39;;;;;;;29.20;13.05;;;;;;;;;;6216619;23;20403;-78
2023/05/23 03:30:05;;;;;;;30.63;13.57;;;;;;;;;;6190010;23;20003;-78
2023/05/23 03:32:31;;;;;;;26.10;12.40;;;;;;;;;;6190037;23;20056;-78
2023/05/23 03:34:56;;;;;;;25.27;12.70;;;;;;;;;;6163987;23;20089;-78
2023/05/23 03:37:22;;;;;;;35.63;12.57;;;;;;;;;;6190201;23;20001;-78
2023/05/23 03:39:47;;;;;;;26.77;12.77;;;;;;;;;;6216611;23;19996;-78
2023/05/23 03:42:12;;;;;;;23.83;11.98;;;;;;;;;;6216623;23;20001;-78
2023/05/23 03:44:38;;;;;;;26.63;12.63;;;;;;;;;;6190385;23;20344;-78
2023/05/23 03:47:04;;;;;;;28.73;12.55;;;;;;;;;;6216565;23;20001;-78
2023/05/23 03:49:29;;;;;;;26.00;11.95;;;;;;;;;;6216452;23;19997;-79
2023/05/23 03:51:54;;;;;;;22.80;11.38;;;;;;;;;;6190383;23;20459;-80
2023/05/23 03:54:20;;;;;;;27.30;11.40;;;;;;;;;;6190054;23;20004;-79
2023/05/23 03:56:45;;;;;;;27.80;11.88;;;;;;;;;;6217012;23;20024;-77
2023/05/23 03:59:11;;;;;;;23.05;11.60;;;;;;;;;;6216486;23;20426;-78
2023/05/23 04:01:36;;;;;;;27.90;11.63;;;;;;;;;;6216966;23;20005;-78
2023/05/23 04:04:03;;;;;;;20.83;10.93;;;;;;;;;;6189722;23;20501;-78
2023/05/23 04:06:30;;;;;;;24.23;12.02;;;;;;;;;;6189949;23;20005;-78
2023/05/23 04:08:55;;;;;;;20.92;11.13;;;;;;;;;;6165353;23;20376;-78
2023/05/23 04:11:21;;;;;;;24.67;11.23;;;;;;;;;;6189088;23;20012;-78
2023/05/23 04:13:47;;;;;;;17.25;10.82;;;;;;;;;;6188062;23;20005;-78
2023/05/23 04:16:12;;;;;;;23.33;11.07;;;;;;;;;;6188483;23;20028;-78
2023/05/23 04:18:38;;;;;;;21.02;11.43;;;;;;;;;;6214921;23;20005;-78
2023/05/23 04:21:04;;;;;;;20.27;10.55;;;;;;;;;;6188404;23;20008;-78
2023/05/23 04:23:29;;;;;;;23.50;12.30;;;;;;;;;;6214818;23;20011;-77
2023/05/23 04:25:56;;;;;;;27.60;12.05;;;;;;;;;;6214781;23;20008;-77
2023/05/23 04:28:22;;;;;;;20.92;11.57;;;;;;;;;;6213809;23;20481;-79
2023/05/23 04:30:48;;;;;;;25.58;11.65;;;;;;;;;;6163187;23;20349;-78
2023/05/23 04:33:14;;;;;;;24.98;12.43;;;;;;;;;;6186989;23;20000;-78
2023/05/23 04:35:39;;;;;;;23.92;12.93;;;;;;;;;;6187602;23;20004;-78
2023/05/23 04:38:05;;;;;;;24.27;11.75;;;;;;;;;;6187924;23;20001;-78
2023/05/23 04:40:30;;;;;;;29.30;12.50;;;;;;;;;;6187637;23;20414;-78
2023/05/23 04:42:56;;;;;;;29.27;12.30;;;;;;;;;;6187995;23;20000;-76
2023/05/23 04:45:22;;;;;;;28.80;11.55;;;;;;;;;;6186988;23;20013;-78
2023/05/23 04:47:47;;;;;;;23.83;11.63;;;;;;;;;;6213926;23;20000;-77
2023/05/23 04:50:15;;;;;;;26.98;11.40;;;;;;;;;;6187498;23;20028;-78
2023/05/23 04:52:41;;;;;;;26.17;12.15;;;;;;;;;;6188475;23;20001;-77
2023/05/23 04:55:07;;;;;;;31.55;12.30;;;;;;;;;;6213881;23;20008;-77
2023/05/23 04:57:33;;;;;;;25.23;11.43;;;;;;;;;;6187274;23;20008;-77
2023/05/23 04:59:59;;;;;;;22.05;11.43;;;;;;;;;;6162637;23;20008;-77
2023/05/23 05:02:26;;;;;;;20.80;10.32;;;;;;;;;;6188216;23;20013;-77
2023/05/23 05:04:51;;;;;;;21.92;10.57;;;;;;;;;;6186895;23;20000;-78
2023/05/23 05:07:17;;;;;;;22.70;11.13;;;;;;;;;;6186563;23;20420;-78
2023/05/23 05:09:42;;;;;;;19.63;10.38;;;;;;;;;;6187482;23;20005;-84
2023/05/23 05:12:08;;;;;;;17.30;9.95;;;;;;;;;;6214233;23;19997;-82
2023/05/23 05:14:33;;;;;;;20.08;10.63;;;;;;;;;;6187730;23;20099;-82
2023/05/23 05:17:01;;;;;;;18.35;11.27;;;;;;;;;;6213812;23;20436;-83
2023/05/23 05:19:26;;;;;;;20.38;10.70;;;;;;;;;;6214367;23;20016;-83
2023/05/23 05:21:52;;;;;;;23.05;9.73;;;;;;;;;;6163041;23;20005;-82
2023/05/23 05:24:19;;;;;;;18.92;10.23;;;;;;;;;;6163357;23;20004;-90
2023/05/23 05:26:45;;;;;;;17.73;10.10;;;;;;;;;;6217322;22;20694;-92
2023/05/23 05:29:11;;;;;;;23.13;10.00;;;;;;;;;;6186817;23;20016;-90
2023/05/23 05:31:39;;;;;;;17.60;10.38;;;;;;;;;;6213111;23;20001;-89
2023/05/23 05:34:05;;;;;;;17.35;9.88;;;;;;;;;;6189989;23;20031;-91
2023/05/23 05:36:31;;;;;;;15.18;9.02;;;;;;;;;;6215593;23;20416;-89
2023/05/23 05:39:10;;;;;;;21.85;9.55;;;;;;;;;;6186482;23;20008;-89
2023/05/23 05:41:35;;;;;;;14.85;9.05;;;;;;;;;;6215532;23;20001;-89
2023/05/23 05:44:01;;;;;;;17.50;8.80;;;;;;;;;;6192726;23;20015;-90
2023/05/23 05:46:26;;;;;;;17.63;8.73;;;;;;;;;;6166118;23;20027;-91
2023/05/23 05:48:51;;;;;;;15.10;8.10;;;;;;;;;;6140827;23;20005;-93
2023/05/23 05:51:17;;;;;;;15.07;8.70;;;;;;;;;;6140381;23;20001;-90
2023/05/23 05:53:42;;;;;;;16.35;8.55;;;;;;;;;;6189609;23;20005;-88
2023/05/23 05:56:08;;;;;;;18.83;8.90;;;;;;;;;;6219375;23;20000;-86
2023/05/23 05:58:34;;;;;;;15.55;8.70;;;;;;;;;;6189869;23;20000;-92
2023/05/23 06:01:00;;;;;;;17.25;8.45;;;;;;;;;;6164222;23;20063;-91
2023/05/23 06:03:26;;;;;;;19.90;7.85;;;;;;;;;;6193950;23;20012;-92
2023/05/23 06:05:51;;;;;;;19.50;8.27;;;;;;;;;;6165687;23;20355;-89
2023/05/23 06:08:23;;;;;;;14.32;7.57;;;;;;;;;;6144429;23;20043;-88
2023/05/23 06:13:55;;;;;;;14.52;8.10;;;;;;;;;;6090513;23;20543;-90
2023/05/23 06:16:21;;;;;;;12.00;8.10;;;;;;;;;;6184060;23;20005;-88
2023/05/23 06:18:46;;;;;;;12.15;7.93;;;;;;;;;;6182629;23;20415;-87
2023/05/23 06:21:11;;;;;;;14.05;7.90;;;;;;;;;;6189517;23;20004;-89
2023/05/23 06:23:37;;;;;;;15.07;7.72;;;;;;;;;;6212830;23;19991;-89
2023/05/23 06:26:06;;;;;;;12.93;7.22;;;;;;;;;;6170278;23;20009;-91
2023/05/23 06:28:32;;;;;;;18.05;7.35;;;;;;;;;;6164753;23;19997;-88
2023/05/23 06:31:50;;;;;;;11.82;7.50;;;;;;;;;;6139369;23;20083;-89
2023/05/23 06:34:16;;;;;;;;;;;;;;;;;;6192296;23;20015;-90
2023/05/23 06:36:41;;;;;;;14.00;7.75;;;;;;;;;;6188480;23;19947;-88
2023/05/23 06:39:26;;;;;;;16.67;7.68;;;;;;;;;;6162638;23;20475;-90
2023/05/23 06:41:52;;;;;;;15.05;9.20;;;;;;;;;;6149986;23;20078;-89
2023/05/23 06:44:18;;;;;;;16.30;9.25;;;;;;;;;;6187727;23;20070;-90
2023/05/23 06:46:46;;;;;;;14.13;9.07;;;;;;;;;;6188757;23;20004;-87
2023/05/23 06:49:44;;;;;;;21.80;9.35;;;;;;;;;;6195571;23;20017;-91
2023/05/23 06:52:28;;;;;;;13.17;8.37;;;;;;;;;;6173533;23;20015;-90
2023/05/23 07:03:03;;;;;;;15.23;8.43;;;;;;;;;;6216608;22;20020;-89
2023/05/23 07:05:41;;;;;;;31.00;9.32;;;;;;;;;;6164756;23;20040;-90
2023/05/23 07:11:31;;;;;;;16.50;8.13;;;;;;;;;;6208536;23;20465;-91
2023/05/23 07:17:37;;;;;;;12.90;7.40;;;;;;;;;;6208950;22;20446;-90
2023/05/23 07:20:07;;;;;;;9.25;6.60;;;;;;;;;;6189789;23;20005;-87
2023/05/23 07:26:02;;;;;;;10.38;7.70;;;;;;;;;;6197677;22;20031;-90
2023/05/23 07:28:39;;;;;;;11.10;7.35;;;;;;;;;;6193904;23;20320;-88
2023/05/23 07:31:12;;;;;;;12.88;7.35;;;;;;;;;;6168652;23;20028;-91
2023/05/23 07:33:44;;;;;;;15.27;7.22;;;;;;;;;;6140849;23;20009;-90
2023/05/23 07:36:18;;;;;;;10.68;7.90;;;;;;;;;;6218770;23;20035;-89
2023/05/23 07:39:48;;;;;;;13.38;7.93;;;;;;;;;;6189400;23;20009;-91
2023/05/23 07:42:14;;;;;;;13.52;7.53;;;;;;;;;;6188027;23;20427;-91
2023/05/23 07:44:40;;;;;;;12.32;6.93;;;;;;;;;;6189137;23;20088;-90
2023/05/23 07:47:05;;;;;;;10.43;6.57;;;;;;;;;;6190190;23;20485;-90
2023/05/23 07:49:31;;;;;;;18.67;7.20;;;;;;;;;;6190199;23;20005;-90
2023/05/23 07:51:59;;;;;;;9.10;6.25;;;;;;;;;;6218111;23;20075;-90
2023/05/23 07:54:25;;;;;;;9.32;6.05;;;;;;;;;;6165221;23;20004;-89
2023/05/23 07:57:07;;;;;;;10.93;6.90;;;;;;;;;;6189643;23;20374;-89
2023/05/23 07:59:33;;;;;;;9.60;6.32;;;;;;;;;;6173989;23;20058;-90
2023/05/23 08:02:07;;;;;;;7.78;6.45;;;;;;;;;;6177092;23;20371;-89
2023/05/23 08:04:33;;;;;;;7.35;6.18;;;;;;;;;;6188020;23;20015;-89
2023/05/23 08:07:07;;;;;;;10.40;6.38;;;;;;;;;;6207437;23;20056;-90
2023/05/23 08:09:43;;;;;;;8.73;5.70;;;;;;;;;;6195849;23;20001;-91
2023/05/23 08:12:08;;;;;;;10.20;5.93;;;;;;;;;;6190782;23;20078;-88
2023/05/23 08:14:34;;;;;;;8.05;5.88;;;;;;;;;;6163605;23;20428;-87
2023/05/23 08:17:00;;;;;;;7.65;5.80;;;;;;;;;;6165580;23;20395;-88
2023/05/23 08:19:25;;;;;;;9.45;5.20;;;;;;;;;;6140539;23;20451;-88
2023/05/23 08:21:52;;;;;;;10.55;5.68;;;;;;;;;;6138064;23;20093;-87
2023/05/23 08:24:18;;;;;;;8.82;5.30;;;;;;;;;;6109991;23;20009;-90
2023/05/23 08:26:43;;;;;;;8.68;5.63;;;;;;;;;;6158631;23;20084;-87
2023/05/23 08:29:09;;;;;;;9.23;5.88;;;;;;;;;;6158402;23;20001;-89
2023/05/23 08:31:34;;;;;;;7.30;5.28;;;;;;;;;;6135033;23;20060;-88
2023/05/23 08:34:00;;;;;;;7.65;5.40;;;;;;;;;;6110258;23;20020;-88
2023/05/23 08:36:25;;;;;;;6.40;5.32;;;;;;;;;;6159006;23;20000;-88
2023/05/23 08:38:51;;;;;;;7.47;5.57;;;;;;;;;;6134202;23;20044;-89
2023/05/23 08:41:23;;;;;;;10.13;5.93;;;;;;;;;;6109997;23;20325;-89
2023/05/23 08:43:51;;;;;;;7.22;5.82;;;;;;;;;;6158190;23;20316;-86
2023/05/23 08:46:16;;;;;;;7.45;6.00;;;;;;;;;;6109549;23;20016;-86
2023/05/23 08:48:43;;;;;;;12.40;5.78;;;;;;;;;;6160180;23;20433;-86
2023/05/23 08:51:09;;;;;;;7.68;5.18;;;;;;;;;;6159986;23;20001;-85
2023/05/23 08:56:27;;;;;;;8.52;5.50;;;;;;;;;;6141932;23;20012;-86
2023/05/23 08:58:56;;;;;;;8.50;5.20;;;;;;;;;;6135813;23;20013;-89
2023/05/23 09:01:30;;;;;;;9.50;5.10;;;;;;;;;;6134022;23;20098;-88
2023/05/23 09:04:22;;;;;;;9.20;5.32;;;;;;;;;;6111166;23;20031;-88
2023/05/23 09:06:48;;;;;;;8.50;5.30;;;;;;;;;;6131160;23;20016;-85
2023/05/23 09:09:13;;;;;;;11.55;5.25;;;;;;;;;;6133553;23;20001;-87
2023/05/23 09:11:44;;;;;;;9.98;5.72;;;;;;;;;;6158529;23;20001;-87
2023/05/23 09:14:10;;;;;;;8.20;5.88;;;;;;;;;;6134479;23;20138;-87
2023/05/23 09:16:35;;;;;;;9.85;6.35;;;;;;;;;;6184267;23;20005;-87
2023/05/23 09:19:09;;;;;;;13.02;5.68;;;;;;;;;;6158030;23;20032;-88
2023/05/23 09:21:35;;;;;;;8.38;5.78;;;;;;;;;;6110719;23;20091;-88
2023/05/23 09:24:01;;;;;;;9.40;6.82;;;;;;;;;;6161944;23;20436;-88
2023/05/23 09:26:26;;;;;;;11.30;5.97;;;;;;;;;;6137463;23;20001;-89
2023/05/23 09:28:52;;;;;;;12.20;7.10;;;;;;;;;;6161184;23;20337;-91
2023/05/23 09:31:17;;;;;;;12.85;6.78;;;;;;;;;;6109541;23;20090;-87
2023/05/23 09:33:48;;;;;;;10.43;6.68;;;;;;;;;;6133363;23;20005;-88
2023/05/23 09:36:14;;;;;;;9.45;6.07;;;;;;;;;;6134937;23;20001;-88
2023/05/23 09:38:41;;;;;;;10.20;6.13;;;;;;;;;;6110100;23;20013;-91
2023/05/23 09:41:07;;;;;;;9.30;6.05;;;;;;;;;;6163068;23;20009;-90
2023/05/23 09:43:32;;;;;;;12.05;6.88;;;;;;;;;;6109127;23;20432;-87
2023/05/23 09:46:10;;;;;;;11.50;6.82;;;;;;;;;;6133528;23;20360;-86
2023/05/23 09:48:36;;;;;;;11.00;6.40;;;;;;;;;;6133686;23;20020;-88
2023/05/23 09:51:08;;;;;;;8.23;5.60;;;;;;;;;;6158401;23;20051;-87
2023/05/23 09:53:34;;;;;;;9.82;6.00;;;;;;;;;;6131299;23;21041;-86
2023/05/23 09:55:59;;;;;;;13.07;6.45;;;;;;;;;;6131742;23;20088;-87
2023/05/23 09:58:26;;;;;;;12.55;5.88;;;;;;;;;;6131630;23;20005;-88
2023/05/23 10:00:56;;;;;;;8.35;5.78;;;;;;;;;;6157503;23;20001;-88
2023/05/23 10:03:30;;;;;;;11.68;6.20;;;;;;;;;;6134636;23;20348;-89
2023/05/23 10:06:00;;;;;;;10.65;5.35;;;;;;;;;;6108567;23;20062;-86
2023/05/23 10:08:38;;;;;;;10.73;5.85;;;;;;;;;;6133813;23;20012;-86
2023/05/23 10:11:13;;;;;;;8.88;5.70;;;;;;;;;;6132615;23;20020;-84
2023/05/23 10:13:40;;;;;;;9.68;5.43;;;;;;;;;;6157501;23;20368;-90
2023/05/23 10:16:15;;;;;;;7.40;5.75;;;;;;;;;;6133585;23;20055;-86
2023/05/23 10:18:43;;;;;;;7.45;5.53;;;;;;;;;;6108226;23;20106;-87
2023/05/23 10:21:13;;;;;;;;;;;;;;;;;;6182064;23;20001;-91
2023/05/23 10:23:38;;;;;;;14.07;5.20;;;;;;;;;;6131324;23;20351;-86
2023/05/23 10:26:04;;;;;;;8.15;5.30;;;;;;;;;;6130998;23;20009;-88
2023/05/23 10:28:35;;;;;;;12.38;5.03;;;;;;;;;;6157033;23;20080;-87
2023/05/23 10:31:00;;;;;;;7.13;4.53;;;;;;;;;;6156834;23;20001;-89
2023/05/23 10:33:26;;;;;;;16.30;4.82;;;;;;;;;;6137130;23;20421;-92
2023/05/23 10:36:27;;;;;;;11.38;5.18;;;;;;;;;;6133842;23;20009;-89
2023/05/23 10:39:08;;;;;;;8.98;5.60;;;;;;;;;;6094799;23;20032;-91
2023/05/23 10:41:48;;;;;;;9.68;5.32;;;;;;;;;;6138828;23;20005;-90
2023/05/23 10:44:23;;;;;;;11.50;5.45;;;;;;;;;;6134163;23;20035;-77
2023/05/23 10:46:57;;;;;;;7.85;5.55;;;;;;;;;;6155790;23;20005;-77
2023/05/23 10:49:42;;;;;;;10.45;5.85;;;;;;;;;;6131434;23;19997;-77
2023/05/23 10:52:12;;;;;;;15.40;5.65;;;;;;;;;;6130809;23;20005;-77
2023/05/23 10:54:46;;;;;;;10.43;5.25;;;;;;;;;;6156531;23;20017;-77
2023/05/23 10:57:15;;;;;;;9.43;5.05;;;;;;;;;;6130968;23;20075;-77
2023/05/23 10:59:41;;;;;;;10.63;5.10;;;;;;;;;;6106899;23;19997;-77
2023/05/23 11:02:16;;;;;;;6.93;5.07;;;;;;;;;;6155158;23;20083;-78
2023/05/23 11:04:42;;;;;;;6.50;5.00;;;;;;;;;;6181144;23;20001;-77
2023/05/23 11:07:30;;;;;;;7.93;5.00;;;;;;;;;;6156877;23;20084;-76
2023/05/23 11:10:09;;;;;;;8.82;4.93;;;;;;;;;;6156877;23;20133;-77
2023/05/23 11:12:39;;;;;;;;;;;;;;;;;;6133560;23;20016;-78
2023/05/23 11:15:16;;;;;;;7.28;5.35;;;;;;;;;;6183367;23;19963;-80
2023/05/23 11:17:55;;;;;;;15.43;6.28;;;;;;;;;;6183684;23;20043;-81
2023/05/23 11:20:36;;;;;;;14.57;9.30;;;;;;;;;;6107932;23;20104;-82
2023/05/23 11:23:04;;;;;;;10.38;5.13;;;;;;;;;;6185622;23;20019;-81
2023/05/23 11:25:43;;;;;;;7.75;4.82;;;;;;;;;;6135515;23;20016;-81
2023/05/23 11:28:11;;;;;;;16.60;10.25;;;;;;;;;;6158840;23;20016;-82
2023/05/23 11:30:37;;;;;;;8.88;5.00;;;;;;;;;;6135555;23;19997;-81
2023/05/23 11:33:12;;;;;;;14.93;5.30;;;;;;;;;;6110128;23;20015;-82
2023/05/23 11:35:41;;;;;;;10.85;5.15;;;;;;;;;;6137038;23;20321;-81
2023/05/23 11:38:07;;;;;;;10.68;5.13;;;;;;;;;;6186450;23;20012;-81
2023/05/23 11:40:33;;;;;;;10.32;5.30;;;;;;;;;;6134633;23;20031;-81
2023/05/23 11:42:59;;;;;;;15.95;5.60;;;;;;;;;;6134586;23;20332;-83
2023/05/23 11:45:26;;;;;;;11.20;4.43;;;;;;;;;;6134287;23;20016;-82
2023/05/23 11:47:52;;;;;;;10.35;5.07;;;;;;;;;;6146769;23;20009;-84
2023/05/23 11:50:19;;;;;;;7.55;5.22;;;;;;;;;;6148229;23;20083;-81
2023/05/23 11:52:50;;;;;;;14.32;5.18;;;;;;;;;;6121580;23;20001;-80
2023/05/23 11:55:16;;;;;;;6.43;4.93;;;;;;;;;;6167268;23;20032;-80
2023/05/23 11:57:41;;;;;;;10.93;5.13;;;;;;;;;;6170418;23;19997;-80
2023/05/23 12:00:07;;;;;;;9.68;5.82;;;;;;;;;;6116366;23;20490;-79
2023/05/23 12:02:41;;;;;;;7.97;5.00;;;;;;;;;;6133842;23;19997;-82
2023/05/23 12:05:10;;;;;;;10.40;5.18;;;;;;;;;;6159490;23;20012;-81
2023/05/23 12:07:40;;;;;;;10.10;4.95;;;;;;;;;;6134721;23;20016;-81
2023/05/23 12:10:07;;;;;;;9.00;5.47;;;;;;;;;;6109994;23;20048;-81
2023/05/23 12:12:32;;;;;;;9.68;5.53;;;;;;;;;;6133982;23;20067;-80
2023/05/23 12:14:58;;;;;;;11.80;5.43;;;;;;;;;;6134305;23;20405;-80
2023/05/23 12:17:23;;;;;;;10.02;5.10;;;;;;;;;;6135019;23;20001;-80
2023/05/23 12:19:52;;;;;;;6.35;4.90;;;;;;;;;;6134236;23;20022;-82
2023/05/23 12:22:23;;;;;;;11.82;6.07;;;;;;;;;;6159332;23;20052;-79
2023/05/23 12:24:52;;;;;;;9.82;5.55;;;;;;;;;;6158819;23;20009;-79
2023/05/23 12:27:18;;;;;;;9.03;5.20;;;;;;;;;;6184749;23;20440;-80
2023/05/23 12:29:49;;;;;;;9.15;5.22;;;;;;;;;;6158573;23;20240;-80
2023/05/23 12:32:14;;;;;;;9.32;5.40;;;;;;;;;;6157835;23;20001;-79
2023/05/23 12:34:41;;;;;;;9.25;5.60;;;;;;;;;;6109642;23;20099;-80
2023/05/23 12:37:07;;;;;;;7.32;5.00;;;;;;;;;;6184552;23;20007;-76
2023/05/23 12:39:33;;;;;;;7.97;5.35;;;;;;;;;;6158170;23;20080;-76
2023/05/23 12:42:08;;;;;;;9.65;5.13;;;;;;;;;;6109106;23;20005;-76
2023/05/23 12:44:34;;;;;;;8.38;5.50;;;;;;;;;;6184574;23;20009;-76
2023/05/23 12:46:59;;;;;;;10.38;5.40;;;;;;;;;;6133857;23;20008;-76
2023/05/23 12:49:24;;;;;;;8.68;5.00;;;;;;;;;;6158234;23;20158;-77
2023/05/23 12:51:50;;;;;;;7.75;5.30;;;;;;;;;;6157994;23;20001;-77
2023/05/23 12:54:16;;;;;;;12.48;5.90;;;;;;;;;;6184947;23;20005;-77
2023/05/23 12:56:42;;;;;;;10.45;5.57;;;;;;;;;;6158165;23;20008;-76
2023/05/23 12:59:07;;;;;;;10.18;5.45;;;;;;;;;;6158220;23;20005;-77
2023/05/23 13:01:33;;;;;;;8.75;5.45;;;;;;;;;;6183852;23;20001;-77
2023/05/23 13:04:00;;;;;;;9.10;4.82;;;;;;;;;;6157953;23;20005;-76
2023/05/23 13:06:25;;;;;;;9.48;5.40;;;;;;;;;;6158382;23;20005;-77
2023/05/23 13:08:53;;;;;;;6.78;5.03;;;;;;;;;;6133779;23;20001;-76
2023/05/23 13:11:18;;;;;;;9.18;5.00;;;;;;;;;;6184468;23;20351;-77
2023/05/23 13:13:45;;;;;;;10.15;6.00;;;;;;;;;;6158078;23;20002;-79
2023/05/23 13:16:11;;;;;;;10.73;5.57;;;;;;;;;;6157803;23;20020;-78
2023/05/23 13:18:36;;;;;;;9.98;5.00;;;;;;;;;;6157878;23;20001;-77
2023/05/23 13:21:02;;;;;;;9.63;5.00;;;;;;;;;;6184281;23;20070;-78
2023/05/23 13:23:28;;;;;;;8.38;5.20;;;;;;;;;;6183514;23;20017;-79
2023/05/23 13:25:54;;;;;;;7.43;5.07;;;;;;;;;;6158162;23;20033;-78
2023/05/23 13:28:19;;;;;;;13.05;4.78;;;;;;;;;;6157143;23;20001;-77
2023/05/23 13:30:45;;;;;;;9.90;5.20;;;;;;;;;;6157236;23;20016;-77
2023/05/23 13:33:10;;;;;;;9.05;5.32;;;;;;;;;;6183527;23;20005;-78
2023/05/23 13:35:36;;;;;;;7.05;4.90;;;;;;;;;;6183668;23;20099;-78
2023/05/23 13:38:01;;;;;;;6.97;5.07;;;;;;;;;;6183664;23;20116;-77
2023/05/23 13:40:27;;;;;;;9.07;5.28;;;;;;;;;;6132733;23;20008;-77
2023/05/23 13:42:52;;;;;;;9.30;5.35;;;;;;;;;;6183605;23;20013;-81
2023/05/23 13:45:18;;;;;;;6.18;4.82;;;;;;;;;;6132407;23;20011;-81
2023/05/23 13:47:44;;;;;;;9.38;5.03;;;;;;;;;;6133923;23;20021;-82
2023/05/23 13:50:10;;;;;;;8.05;4.80;;;;;;;;;;6157639;23;20487;-80
2023/05/23 13:52:35;;;;;;;7.20;4.75;;;;;;;;;;6109128;23;20016;-83
2023/05/23 13:55:03;;;;;;;6.57;4.72;;;;;;;;;;6184121;23;20005;-81
2023/05/23 13:57:29;;;;;;;6.90;4.63;;;;;;;;;;6158245;23;20480;-79
2023/05/23 13:59:55;;;;;;;10.95;5.13;;;;;;;;;;6157052;23;20005;-80
2023/05/23 14:02:21;;;;;;;13.10;4.97;;;;;;;;;;6133469;23;20432;-81
2023/05/23 14:04:47;;;;;;;7.43;5.00;;;;;;;;;;6108869;23;20356;-82
2023/05/23 14:07:13;;;;;;;9.18;4.88;;;;;;;;;;6157474;23;20067;-81
2023/05/23 14:09:39;;;;;;;6.00;4.65;;;;;;;;;;6157853;23;20448;-82
2023/05/23 14:12:04;;;;;;;8.30;4.97;;;;;;;;;;6183908;23;20494;-81
2023/05/23 14:14:30;;;;;;;6.88;4.40;;;;;;;;;;6156971;23;20020;-84
2023/05/23 14:16:56;;;;;;;10.43;4.80;;;;;;;;;;6133094;23;19998;-83
2023/05/23 14:19:22;;;;;;;8.07;4.75;;;;;;;;;;6157227;23;20055;-82
2023/05/23 14:21:51;;;;;;;8.13;4.68;;;;;;;;;;6156424;23;20412;-81
2023/05/23 14:24:16;;;;;;;11.17;4.70;;;;;;;;;;6157142;23;20449;-84
2023/05/23 14:26:42;;;;;;;6.63;4.63;;;;;;;;;;6183740;23;20232;-81
2023/05/23 14:29:10;;;;;;;7.70;5.10;;;;;;;;;;6183675;23;20005;-84
2023/05/23 14:31:36;;;;;;;7.30;4.57;;;;;;;;;;6185186;23;20036;-81
2023/05/23 14:34:01;;;;;;;7.88;4.43;;;;;;;;;;6183414;23;20005;-83
2023/05/23 14:36:27;;;;;;;6.30;4.53;;;;;;;;;;6157465;23;20028;-79
2023/05/23 14:38:52;;;;;;;8.02;4.50;;;;;;;;;;6132673;23;20009;-81
2023/05/23 14:41:18;;;;;;;7.20;4.63;;;;;;;;;;6183618;23;20001;-81
2023/05/23 14:43:43;;;;;;;9.38;4.90;;;;;;;;;;6156969;23;20457;-80
2023/05/23 14:46:08;;;;;;;8.10;4.72;;;;;;;;;;6157203;23;20005;-80
2023/05/23 14:48:34;;;;;;;6.57;4.53;;;;;;;;;;6183749;23;20388;-79
2023/05/23 14:51:03;;;;;;;6.70;4.43;;;;;;;;;;6133187;23;20345;-84
2023/05/23 14:53:28;;;;;;;6.25;4.45;;;;;;;;;;6133686;23;20092;-81
2023/05/23 14:55:54;;;;;;;9.00;4.68;;;;;;;;;;6156964;23;20005;-82
2023/05/23 14:58:21;;;;;;;6.13;4.82;;;;;;;;;;6157356;23;20009;-84
2023/05/23 15:00:47;;;;;;;7.88;4.90;;;;;;;;;;6184164;23;20061;-83